Halifax (YHZ/CYHZ)

Map

Destinations

Information

Location
Halifax, Nova Scotia, Canada
Local Time
19:34 / 7:34 pm
GMT Time
22:34 / 10:34 pm
Gates
Unassigned
No FAA reported delays
METAR CYHZ 242200Z 13006KT 15SM OVC120 18/10 A3007 RMK AC8 SLP187 DENSITY ALT 800FT
TAF TAF CYHZ 242038Z 2421/2518 18005KT P6SM OVC160 FM242300 16008KT P6SM FEW020 OVC100 TEMPO 2501/2503 P6SM -SHRA BKN020 FM250300 12010KT P6SM -RA BKN012 OVC080 FM250600 07012G22KT 3SM -RA BR BKN008 OVC012 PROB30 2506/2512 1SM -RA BR BKN003 OVC008 FM251300 04012G22KT 5SM -RA -DZ BR BKN008 OVC012 RMK NXT FCST BY 250000Z